sensor_id;sensor_type;location;lat;lon;timestamp;temperature;humidity
77613;DHT22;66777;52.282;5.960;2023-04-25T00:01:31;5.50;94.00
77613;DHT22;66777;52.282;5.960;2023-04-25T00:04:02;5.30;94.00
77613;DHT22;66777;52.282;5.960;2023-04-25T00:06:28;5.30;94.00
77613;DHT22;66777;52.282;5.960;2023-04-25T00:08:56;5.20;94.00
77613;DHT22;66777;52.282;5.960;2023-04-25T00:11:22;5.00;93.90
77613;DHT22;66777;52.282;5.960;2023-04-25T00:13:49;5.00;93.80
77613;DHT22;66777;52.282;5.960;2023-04-25T00:16:16;5.00;93.80
77613;DHT22;66777;52.282;5.960;2023-04-25T00:18:42;5.00;93.90
77613;DHT22;66777;52.282;5.960;2023-04-25T00:21:08;5.00;93.90
77613;DHT22;66777;52.282;5.960;2023-04-25T00:23:34;5.00;93.90
77613;DHT22;66777;52.282;5.960;2023-04-25T00:26:02;4.90;93.80
77613;DHT22;66777;52.282;5.960;2023-04-25T00:28:28;4.80;93.80
77613;DHT22;66777;52.282;5.960;2023-04-25T00:30:53;4.70;93.80
77613;DHT22;66777;52.282;5.960;2023-04-25T00:33:19;4.70;93.80
77613;DHT22;66777;52.282;5.960;2023-04-25T00:35:45;4.70;93.80
77613;DHT22;66777;52.282;5.960;2023-04-25T00:38:11;4.70;93.80
77613;DHT22;66777;52.282;5.960;2023-04-25T00:40:37;4.70;93.80
77613;DHT22;66777;52.282;5.960;2023-04-25T00:43:03;4.70;93.80
77613;DHT22;66777;52.282;5.960;2023-04-25T00:45:30;4.60;93.80
77613;DHT22;66777;52.282;5.960;2023-04-25T00:47:56;4.50;93.80
77613;DHT22;66777;52.282;5.960;2023-04-25T00:50:23;4.50;93.70
77613;DHT22;66777;52.282;5.960;2023-04-25T00:52:49;4.50;93.80
77613;DHT22;66777;52.282;5.960;2023-04-25T00:55:15;4.50;93.70
77613;DHT22;66777;52.282;5.960;2023-04-25T00:57:42;4.70;93.90
77613;DHT22;66777;52.282;5.960;2023-04-25T01:00:08;4.70;93.90
77613;DHT22;66777;52.282;5.960;2023-04-25T01:02:40;4.70;93.90
77613;DHT22;66777;52.282;5.960;2023-04-25T01:05:08;4.70;93.90
77613;DHT22;66777;52.282;5.960;2023-04-25T01:07:34;4.80;93.90
77613;DHT22;66777;52.282;5.960;2023-04-25T01:10:01;4.70;93.90
77613;DHT22;66777;52.282;5.960;2023-04-25T01:12:26;4.70;93.90
77613;DHT22;66777;52.282;5.960;2023-04-25T01:14:53;4.50;93.80
77613;DHT22;66777;52.282;5.960;2023-04-25T01:17:20;4.50;93.80
77613;DHT22;66777;52.282;5.960;2023-04-25T01:19:46;4.40;93.70
77613;DHT22;66777;52.282;5.960;2023-04-25T01:22:14;4.40;93.70
77613;DHT22;66777;52.282;5.960;2023-04-25T01:24:40;4.30;93.70
77613;DHT22;66777;52.282;5.960;2023-04-25T01:27:06;4.30;93.70
77613;DHT22;66777;52.282;5.960;2023-04-25T01:29:34;4.30;93.60
77613;DHT22;66777;52.282;5.960;2023-04-25T01:32:01;4.20;93.70
77613;DHT22;66777;52.282;5.960;2023-04-25T01:34:27;4.30;93.70
77613;DHT22;66777;52.282;5.960;2023-04-25T01:36:53;4.50;93.90
77613;DHT22;66777;52.282;5.960;2023-04-25T01:39:19;4.50;93.90
77613;DHT22;66777;52.282;5.960;2023-04-25T01:41:46;4.60;94.00
77613;DHT22;66777;52.282;5.960;2023-04-25T01:44:13;4.60;94.00
77613;DHT22;66777;52.282;5.960;2023-04-25T01:46:39;4.60;94.00
77613;DHT22;66777;52.282;5.960;2023-04-25T01:49:06;4.60;94.00
77613;DHT22;66777;52.282;5.960;2023-04-25T01:51:32;4.60;94.00
77613;DHT22;66777;52.282;5.960;2023-04-25T01:53:59;4.70;94.00
77613;DHT22;66777;52.282;5.960;2023-04-25T01:56:29;4.50;94.00
77613;DHT22;66777;52.282;5.960;2023-04-25T01:58:55;4.50;94.00
77613;DHT22;66777;52.282;5.960;2023-04-25T02:01:21;4.40;93.90
77613;DHT22;66777;52.282;5.960;2023-04-25T02:03:47;4.20;93.80
77613;DHT22;66777;52.282;5.960;2023-04-25T02:06:13;4.20;93.70
77613;DHT22;66777;52.282;5.960;2023-04-25T02:08:38;4.20;93.70
77613;DHT22;66777;52.282;5.960;2023-04-25T02:11:04;4.20;93.70
77613;DHT22;66777;52.282;5.960;2023-04-25T02:13:30;4.10;93.80
77613;DHT22;66777;52.282;5.960;2023-04-25T02:15:56;4.10;93.70
77613;DHT22;66777;52.282;5.960;2023-04-25T02:18:22;4.00;93.70
77613;DHT22;66777;52.282;5.960;2023-04-25T02:20:49;3.90;93.70
77613;DHT22;66777;52.282;5.960;2023-04-25T02:23:15;3.90;93.60
77613;DHT22;66777;52.282;5.960;2023-04-25T02:25:41;3.90;93.60
77613;DHT22;66777;52.282;5.960;2023-04-25T02:28:07;3.80;93.50
77613;DHT22;66777;52.282;5.960;2023-04-25T02:30:33;3.70;93.60
77613;DHT22;66777;52.282;5.960;2023-04-25T02:32:59;3.70;93.50
77613;DHT22;66777;52.282;5.960;2023-04-25T02:35:25;3.60;93.50
77613;DHT22;66777;52.282;5.960;2023-04-25T02:37:50;3.60;93.50
77613;DHT22;66777;52.282;5.960;2023-04-25T02:40:16;3.60;93.50
77613;DHT22;66777;52.282;5.960;2023-04-25T02:42:42;3.70;93.60
77613;DHT22;66777;52.282;5.960;2023-04-25T02:45:08;3.60;93.60
77613;DHT22;66777;52.282;5.960;2023-04-25T02:47:34;3.60;93.60
77613;DHT22;66777;52.282;5.960;2023-04-25T02:49:59;3.60;93.50
77613;DHT22;66777;52.282;5.960;2023-04-25T02:52:25;3.60;93.60
77613;DHT22;66777;52.282;5.960;2023-04-25T02:54:51;3.70;93.60
77613;DHT22;66777;52.282;5.960;2023-04-25T02:57:17;3.70;93.60
77613;DHT22;66777;52.282;5.960;2023-04-25T02:59:43;3.80;93.70
77613;DHT22;66777;52.282;5.960;2023-04-25T03:02:10;3.90;93.70
77613;DHT22;66777;52.282;5.960;2023-04-25T03:04:36;3.90;93.70
77613;DHT22;66777;52.282;5.960;2023-04-25T03:07:01;3.90;93.70
77613;DHT22;66777;52.282;5.960;2023-04-25T03:09:28;3.90;93.70
77613;DHT22;66777;52.282;5.960;2023-04-25T03:11:53;4.00;93.70
77613;DHT22;66777;52.282;5.960;2023-04-25T03:14:19;4.00;93.70
77613;DHT22;66777;52.282;5.960;2023-04-25T03:16:45;4.10;93.70
77613;DHT22;66777;52.282;5.960;2023-04-25T03:19:11;4.10;93.70
77613;DHT22;66777;52.282;5.960;2023-04-25T03:21:37;4.10;93.70
77613;DHT22;66777;52.282;5.960;2023-04-25T03:24:03;4.10;93.70
77613;DHT22;66777;52.282;5.960;2023-04-25T03:26:29;4.20;93.80
77613;DHT22;66777;52.282;5.960;2023-04-25T03:28:55;4.20;93.90
77613;DHT22;66777;52.282;5.960;2023-04-25T03:31:21;4.30;93.90
77613;DHT22;66777;52.282;5.960;2023-04-25T03:33:47;4.40;93.90
77613;DHT22;66777;52.282;5.960;2023-04-25T03:36:14;4.30;93.90
77613;DHT22;66777;52.282;5.960;2023-04-25T03:38:40;4.30;93.90
77613;DHT22;66777;52.282;5.960;2023-04-25T03:41:07;4.30;93.90
77613;DHT22;66777;52.282;5.960;2023-04-25T03:43:33;4.40;93.90
77613;DHT22;66777;52.282;5.960;2023-04-25T03:46:00;4.40;93.90
77613;DHT22;66777;52.282;5.960;2023-04-25T03:48:26;4.40;94.00
77613;DHT22;66777;52.282;5.960;2023-04-25T03:50:53;4.50;94.00
77613;DHT22;66777;52.282;5.960;2023-04-25T03:53:20;4.40;94.00
77613;DHT22;66777;52.282;5.960;2023-04-25T03:55:47;4.50;94.00
77613;DHT22;66777;52.282;5.960;2023-04-25T03:58:13;4.50;94.00
77613;DHT22;66777;52.282;5.960;2023-04-25T04:00:38;4.50;94.00
77613;DHT22;66777;52.282;5.960;2023-04-25T04:03:04;4.50;94.10
77613;DHT22;66777;52.282;5.960;2023-04-25T04:05:30;4.50;94.00
77613;DHT22;66777;52.282;5.960;2023-04-25T04:07:56;4.50;94.00
77613;DHT22;66777;52.282;5.960;2023-04-25T04:10:22;4.50;94.00
77613;DHT22;66777;52.282;5.960;2023-04-25T04:12:48;4.50;94.00
77613;DHT22;66777;52.282;5.960;2023-04-25T04:15:14;4.50;94.00
77613;DHT22;66777;52.282;5.960;2023-04-25T04:17:40;4.40;94.00
77613;DHT22;66777;52.282;5.960;2023-04-25T04:20:07;4.40;94.00
77613;DHT22;66777;52.282;5.960;2023-04-25T04:22:34;4.40;94.00
77613;DHT22;66777;52.282;5.960;2023-04-25T04:25:00;4.40;94.00
77613;DHT22;66777;52.282;5.960;2023-04-25T04:27:25;4.40;94.00
77613;DHT22;66777;52.282;5.960;2023-04-25T04:29:51;4.40;94.00
77613;DHT22;66777;52.282;5.960;2023-04-25T04:32:18;4.40;94.00
77613;DHT22;66777;52.282;5.960;2023-04-25T04:34:44;4.40;94.00
77613;DHT22;66777;52.282;5.960;2023-04-25T04:37:10;4.40;94.00
77613;DHT22;66777;52.282;5.960;2023-04-25T04:39:38;4.50;94.00
77613;DHT22;66777;52.282;5.960;2023-04-25T04:42:04;4.50;94.10
77613;DHT22;66777;52.282;5.960;2023-04-25T04:44:30;4.50;94.00
77613;DHT22;66777;52.282;5.960;2023-04-25T04:47:00;4.50;94.00
77613;DHT22;66777;52.282;5.960;2023-04-25T04:49:27;4.40;93.90
77613;DHT22;66777;52.282;5.960;2023-04-25T04:51:53;4.50;94.00
77613;DHT22;66777;52.282;5.960;2023-04-25T04:54:20;4.50;94.00
77613;DHT22;66777;52.282;5.960;2023-04-25T04:56:46;4.50;94.00
77613;DHT22;66777;52.282;5.960;2023-04-25T04:59:11;4.50;94.00
77613;DHT22;66777;52.282;5.960;2023-04-25T05:01:37;4.50;94.00
77613;DHT22;66777;52.282;5.960;2023-04-25T05:04:04;4.50;94.00
77613;DHT22;66777;52.282;5.960;2023-04-25T05:06:31;4.40;94.00
77613;DHT22;66777;52.282;5.960;2023-04-25T05:08:57;4.40;94.00
77613;DHT22;66777;52.282;5.960;2023-04-25T05:11:23;4.30;94.00
77613;DHT22;66777;52.282;5.960;2023-04-25T05:13:53;4.40;94.00
77613;DHT22;66777;52.282;5.960;2023-04-25T05:16:20;4.40;94.00
77613;DHT22;66777;52.282;5.960;2023-04-25T05:18:47;4.40;94.00
77613;DHT22;66777;52.282;5.960;2023-04-25T05:21:13;4.50;94.00
77613;DHT22;66777;52.282;5.960;2023-04-25T05:23:39;4.40;93.90
77613;DHT22;66777;52.282;5.960;2023-04-25T05:26:05;4.40;93.90
77613;DHT22;66777;52.282;5.960;2023-04-25T05:28:32;4.50;93.90
77613;DHT22;66777;52.282;5.960;2023-04-25T05:30:58;4.50;93.90
77613;DHT22;66777;52.282;5.960;2023-04-25T05:33:23;4.50;93.90
77613;DHT22;66777;52.282;5.960;2023-04-25T05:35:51;4.50;93.90
77613;DHT22;66777;52.282;5.960;2023-04-25T05:38:17;4.50;93.90
77613;DHT22;66777;52.282;5.960;2023-04-25T05:40:43;4.50;93.90
77613;DHT22;66777;52.282;5.960;2023-04-25T05:43:10;4.70;93.90
77613;DHT22;66777;52.282;5.960;2023-04-25T05:45:36;4.70;93.80
77613;DHT22;66777;52.282;5.960;2023-04-25T05:48:02;4.80;93.90
77613;DHT22;66777;52.282;5.960;2023-04-25T05:50:28;4.90;93.80
77613;DHT22;66777;52.282;5.960;2023-04-25T05:52:54;5.00;93.90
77613;DHT22;66777;52.282;5.960;2023-04-25T05:55:19;5.00;93.90
77613;DHT22;66777;52.282;5.960;2023-04-25T05:57:45;5.10;93.90
77613;DHT22;66777;52.282;5.960;2023-04-25T06:00:13;5.10;93.80
77613;DHT22;66777;52.282;5.960;2023-04-25T06:02:40;5.20;93.80
77613;DHT22;66777;52.282;5.960;2023-04-25T06:05:06;5.10;93.70
77613;DHT22;66777;52.282;5.960;2023-04-25T06:07:32;5.10;93.60
77613;DHT22;66777;52.282;5.960;2023-04-25T06:09:59;5.10;93.60
77613;DHT22;66777;52.282;5.960;2023-04-25T06:12:26;5.10;93.60
77613;DHT22;66777;52.282;5.960;2023-04-25T06:14:52;5.10;93.50
77613;DHT22;66777;52.282;5.960;2023-04-25T06:17:18;5.30;93.60
77613;DHT22;66777;52.282;5.960;2023-04-25T06:19:44;5.30;93.60
77613;DHT22;66777;52.282;5.960;2023-04-25T06:22:10;5.30;93.50
77613;DHT22;66777;52.282;5.960;2023-04-25T06:24:36;5.50;93.50
77613;DHT22;66777;52.282;5.960;2023-04-25T06:27:02;5.60;93.50
77613;DHT22;66777;52.282;5.960;2023-04-25T06:29:28;5.90;93.50
77613;DHT22;66777;52.282;5.960;2023-04-25T06:31:53;6.10;93.60
77613;DHT22;66777;52.282;5.960;2023-04-25T06:34:19;6.20;93.40
77613;DHT22;66777;52.282;5.960;2023-04-25T06:36:45;6.10;93.20
77613;DHT22;66777;52.282;5.960;2023-04-25T06:39:10;6.10;93.20
77613;DHT22;66777;52.282;5.960;2023-04-25T06:41:36;6.00;93.20
77613;DHT22;66777;52.282;5.960;2023-04-25T06:44:02;6.00;93.10
77613;DHT22;66777;52.282;5.960;2023-04-25T06:46:28;6.20;93.20
77613;DHT22;66777;52.282;5.960;2023-04-25T06:48:54;6.30;93.40
77613;DHT22;66777;52.282;5.960;2023-04-25T06:51:20;6.40;93.40
77613;DHT22;66777;52.282;5.960;2023-04-25T06:53:45;6.30;93.20
77613;DHT22;66777;52.282;5.960;2023-04-25T06:56:11;6.20;92.90
77613;DHT22;66777;52.282;5.960;2023-04-25T06:58:37;6.20;92.90
77613;DHT22;66777;52.282;5.960;2023-04-25T07:01:03;6.30;93.00
77613;DHT22;66777;52.282;5.960;2023-04-25T07:03:29;6.50;93.00
77613;DHT22;66777;52.282;5.960;2023-04-25T07:05:55;6.40;92.80
77613;DHT22;66777;52.282;5.960;2023-04-25T07:08:21;6.40;92.70
77613;DHT22;66777;52.282;5.960;2023-04-25T07:10:47;6.50;92.50
77613;DHT22;66777;52.282;5.960;2023-04-25T07:13:12;6.50;92.30
77613;DHT22;66777;52.282;5.960;2023-04-25T07:15:38;6.50;92.20
77613;DHT22;66777;52.282;5.960;2023-04-25T07:18:04;6.60;92.30
77613;DHT22;66777;52.282;5.960;2023-04-25T07:20:29;6.60;92.30
77613;DHT22;66777;52.282;5.960;2023-04-25T07:22:56;6.70;92.30
77613;DHT22;66777;52.282;5.960;2023-04-25T07:25:22;6.90;92.30
77613;DHT22;66777;52.282;5.960;2023-04-25T07:27:49;7.00;92.10
77613;DHT22;66777;52.282;5.960;2023-04-25T07:30:15;7.00;92.00
77613;DHT22;66777;52.282;5.960;2023-04-25T07:32:41;7.20;92.00
77613;DHT22;66777;52.282;5.960;2023-04-25T07:35:07;7.30;91.90
77613;DHT22;66777;52.282;5.960;2023-04-25T07:37:35;7.50;92.20
77613;DHT22;66777;52.282;5.960;2023-04-25T07:40:02;8.00;92.30
77613;DHT22;66777;52.282;5.960;2023-04-25T07:42:29;8.40;91.20
77613;DHT22;66777;52.282;5.960;2023-04-25T07:44:55;8.10;90.50
77613;DHT22;66777;52.282;5.960;2023-04-25T07:47:21;7.20;89.30
77613;DHT22;66777;52.282;5.960;2023-04-25T07:49:47;6.00;89.70
77613;DHT22;66777;52.282;5.960;2023-04-25T07:52:13;5.50;91.00
77613;DHT22;66777;52.282;5.960;2023-04-25T07:54:39;5.30;91.70
77613;DHT22;66777;52.282;5.960;2023-04-25T07:57:05;5.40;92.30
77613;DHT22;66777;52.282;5.960;2023-04-25T07:59:32;5.50;92.70
77613;DHT22;66777;52.282;5.960;2023-04-25T08:01:57;5.80;92.80
77613;DHT22;66777;52.282;5.960;2023-04-25T08:04:23;5.90;92.80
77613;DHT22;66777;52.282;5.960;2023-04-25T08:06:52;6.10;92.80
77613;DHT22;66777;52.282;5.960;2023-04-25T08:09:19;6.20;92.80
77613;DHT22;66777;52.282;5.960;2023-04-25T08:11:45;6.40;92.90
77613;DHT22;66777;52.282;5.960;2023-04-25T08:14:12;6.60;92.90
77613;DHT22;66777;52.282;5.960;2023-04-25T08:16:39;6.60;92.70
77613;DHT22;66777;52.282;5.960;2023-04-25T08:19:05;6.80;92.60
77613;DHT22;66777;52.282;5.960;2023-04-25T08:21:31;7.00;92.10
77613;DHT22;66777;52.282;5.960;2023-04-25T08:23:58;7.20;92.20
77613;DHT22;66777;52.282;5.960;2023-04-25T08:26:25;7.20;91.80
77613;DHT22;66777;52.282;5.960;2023-04-25T08:28:50;7.20;91.60
77613;DHT22;66777;52.282;5.960;2023-04-25T08:31:17;7.30;91.60
77613;DHT22;66777;52.282;5.960;2023-04-25T08:33:43;7.60;92.00
77613;DHT22;66777;52.282;5.960;2023-04-25T08:36:10;8.00;91.70
77613;DHT22;66777;52.282;5.960;2023-04-25T08:38:36;8.50;91.90
77613;DHT22;66777;52.282;5.960;2023-04-25T08:41:02;8.90;91.10
77613;DHT22;66777;52.282;5.960;2023-04-25T08:43:29;9.20;90.60
77613;DHT22;66777;52.282;5.960;2023-04-25T08:45:59;9.50;90.40
77613;DHT22;66777;52.282;5.960;2023-04-25T08:48:27;9.70;89.90
77613;DHT22;66777;52.282;5.960;2023-04-25T08:50:55;9.70;89.60
77613;DHT22;66777;52.282;5.960;2023-04-25T08:53:32;9.20;88.90
77613;DHT22;66777;52.282;5.960;2023-04-25T08:55:59;9.00;89.80
77613;DHT22;66777;52.282;5.960;2023-04-25T08:58:28;8.90;89.30
77613;DHT22;66777;52.282;5.960;2023-04-25T09:00:54;8.30;88.00
77613;DHT22;66777;52.282;5.960;2023-04-25T09:03:20;7.70;87.70
77613;DHT22;66777;52.282;5.960;2023-04-25T09:05:46;7.50;89.40
77613;DHT22;66777;52.282;5.960;2023-04-25T09:08:11;7.30;89.80
77613;DHT22;66777;52.282;5.960;2023-04-25T09:10:37;7.20;89.70
77613;DHT22;66777;52.282;5.960;2023-04-25T09:13:13;7.10;89.70
77613;DHT22;66777;52.282;5.960;2023-04-25T09:15:51;7.10;90.20
77613;DHT22;66777;52.282;5.960;2023-04-25T09:18:28;7.30;90.60
77613;DHT22;66777;52.282;5.960;2023-04-25T09:21:12;7.40;90.00
77613;DHT22;66777;52.282;5.960;2023-04-25T09:23:45;7.60;89.50
77613;DHT22;66777;52.282;5.960;2023-04-25T09:26:18;8.00;89.20
77613;DHT22;66777;52.282;5.960;2023-04-25T09:28:45;8.60;89.20
77613;DHT22;66777;52.282;5.960;2023-04-25T09:31:12;9.00;88.30
77613;DHT22;66777;52.282;5.960;2023-04-25T09:33:38;9.10;87.50
77613;DHT22;66777;52.282;5.960;2023-04-25T09:36:06;9.40;88.40
77613;DHT22;66777;52.282;5.960;2023-04-25T09:38:40;9.60;88.00
77613;DHT22;66777;52.282;5.960;2023-04-25T09:41:07;9.70;87.10
77613;DHT22;66777;52.282;5.960;2023-04-25T09:43:33;10.10;87.80
77613;DHT22;66777;52.282;5.960;2023-04-25T09:45:59;11.10;86.70
77613;DHT22;66777;52.282;5.960;2023-04-25T09:48:26;10.80;84.80
77613;DHT22;66777;52.282;5.960;2023-04-25T09:51:12;10.40;85.80
77613;DHT22;66777;52.282;5.960;2023-04-25T09:53:43;9.70;87.20
77613;DHT22;66777;52.282;5.960;2023-04-25T09:56:10;9.40;88.30
77613;DHT22;66777;52.282;5.960;2023-04-25T09:58:38;9.40;87.60
77613;DHT22;66777;52.282;5.960;2023-04-25T10:01:08;9.50;87.80
77613;DHT22;66777;52.282;5.960;2023-04-25T10:03:39;9.50;87.20
77613;DHT22;66777;52.282;5.960;2023-04-25T10:06:12;9.20;86.50
77613;DHT22;66777;52.282;5.960;2023-04-25T10:08:38;8.90;86.00
77613;DHT22;66777;52.282;5.960;2023-04-25T10:11:06;8.70;86.40
77613;DHT22;66777;52.282;5.960;2023-04-25T10:13:34;8.60;84.80
77613;DHT22;66777;52.282;5.960;2023-04-25T10:16:02;8.60;84.70
77613;DHT22;66777;52.282;5.960;2023-04-25T10:18:29;8.80;85.50
77613;DHT22;66777;52.282;5.960;2023-04-25T10:20:57;9.00;84.90
77613;DHT22;66777;52.282;5.960;2023-04-25T10:23:23;9.50;84.30
77613;DHT22;66777;52.282;5.960;2023-04-25T10:25:53;10.10;84.00
77613;DHT22;66777;52.282;5.960;2023-04-25T10:28:20;10.70;81.60
77613;DHT22;66777;52.282;5.960;2023-04-25T10:31:12;10.90;80.50
77613;DHT22;66777;52.282;5.960;2023-04-25T10:33:43;11.30;83.40
77613;DHT22;66777;52.282;5.960;2023-04-25T10:36:13;11.90;79.80
77613;DHT22;66777;52.282;5.960;2023-04-25T10:38:43;12.10;81.20
77613;DHT22;66777;52.282;5.960;2023-04-25T10:41:11;13.10;78.90
77613;DHT22;66777;52.282;5.960;2023-04-25T10:43:40;14.60;78.40
77613;DHT22;66777;52.282;5.960;2023-04-25T10:46:26;17.60;73.70
77613;DHT22;66777;52.282;5.960;2023-04-25T10:48:55;17.20;74.80
77613;DHT22;66777;52.282;5.960;2023-04-25T10:51:26;14.40;74.30
77613;DHT22;66777;52.282;5.960;2023-04-25T10:56:22;12.90;79.00
77613;DHT22;66777;52.282;5.960;2023-04-25T10:58:49;13.30;78.10
77613;DHT22;66777;52.282;5.960;2023-04-25T11:01:19;16.10;77.90
77613;DHT22;66777;52.282;5.960;2023-04-25T11:03:47;16.70;74.00
77613;DHT22;66777;52.282;5.960;2023-04-25T11:06:22;20.40;72.80
77613;DHT22;66777;52.282;5.960;2023-04-25T11:08:50;23.60;63.00
77613;DHT22;66777;52.282;5.960;2023-04-25T11:11:17;24.00;63.80
77613;DHT22;66777;52.282;5.960;2023-04-25T11:13:44;25.50;62.00
77613;DHT22;66777;52.282;5.960;2023-04-25T11:16:10;27.20;54.30
77613;DHT22;66777;52.282;5.960;2023-04-25T11:18:36;27.00;56.50
77613;DHT22;66777;52.282;5.960;2023-04-25T11:21:03;22.10;63.20
77613;DHT22;66777;52.282;5.960;2023-04-25T11:23:30;21.60;64.70
77613;DHT22;66777;52.282;5.960;2023-04-25T11:25:56;23.40;61.50
77613;DHT22;66777;52.282;5.960;2023-04-25T11:28:22;22.00;61.90
77613;DHT22;66777;52.282;5.960;2023-04-25T11:30:52;19.50;62.10
77613;DHT22;66777;52.282;5.960;2023-04-25T11:33:22;19.10;63.70
77613;DHT22;66777;52.282;5.960;2023-04-25T11:35:48;17.40;65.10
77613;DHT22;66777;52.282;5.960;2023-04-25T11:38:15;15.20;67.80
77613;DHT22;66777;52.282;5.960;2023-04-25T11:40:41;13.60;73.10
77613;DHT22;66777;52.282;5.960;2023-04-25T11:43:06;13.10;74.40
77613;DHT22;66777;52.282;5.960;2023-04-25T11:45:32;16.10;70.20
77613;DHT22;66777;52.282;5.960;2023-04-25T11:47:59;19.80;68.80
77613;DHT22;66777;52.282;5.960;2023-04-25T11:50:28;18.00;66.20
77613;DHT22;66777;52.282;5.960;2023-04-25T11:52:56;16.60;66.80
77613;DHT22;66777;52.282;5.960;2023-04-25T11:55:22;14.70;69.60
77613;DHT22;66777;52.282;5.960;2023-04-25T11:57:49;13.80;71.20
77613;DHT22;66777;52.282;5.960;2023-04-25T12:00:17;15.40;69.20
77613;DHT22;66777;52.282;5.960;2023-04-25T12:02:50;19.10;67.00
77613;DHT22;66777;52.282;5.960;2023-04-25T12:05:16;17.90;64.20
77613;DHT22;66777;52.282;5.960;2023-04-25T12:07:42;19.30;66.10
77613;DHT22;66777;52.282;5.960;2023-04-25T12:10:13;21.20;59.50
77613;DHT22;66777;52.282;5.960;2023-04-25T12:12:44;19.50;61.80
77613;DHT22;66777;52.282;5.960;2023-04-25T12:15:24;20.90;59.60
77613;DHT22;66777;52.282;5.960;2023-04-25T12:17:52;23.10;54.20
77613;DHT22;66777;52.282;5.960;2023-04-25T12:20:20;20.50;55.50
77613;DHT22;66777;52.282;5.960;2023-04-25T12:22:48;18.50;60.30
77613;DHT22;66777;52.282;5.960;2023-04-25T12:25:41;18.10;61.30
77613;DHT22;66777;52.282;5.960;2023-04-25T12:28:14;23.40;44.40
77613;DHT22;66777;52.282;5.960;2023-04-25T12:33:22;29.50;40.20
77613;DHT22;66777;52.282;5.960;2023-04-25T12:35:48;31.90;39.60
77613;DHT22;66777;52.282;5.960;2023-04-25T12:38:25;30.00;38.20
77613;DHT22;66777;52.282;5.960;2023-04-25T12:40:51;24.00;41.90
77613;DHT22;66777;52.282;5.960;2023-04-25T12:43:17;19.60;49.70
77613;DHT22;66777;52.282;5.960;2023-04-25T12:45:54;17.50;53.30
77613;DHT22;66777;52.282;5.960;2023-04-25T12:48:20;20.10;45.70
77613;DHT22;66777;52.282;5.960;2023-04-25T12:50:47;18.10;52.20
77613;DHT22;66777;52.282;5.960;2023-04-25T12:53:18;16.70;54.80
77613;DHT22;66777;52.282;5.960;2023-04-25T12:55:47;15.60;55.70
77613;DHT22;66777;52.282;5.960;2023-04-25T12:58:17;14.50;57.90
77613;DHT22;66777;52.282;5.960;2023-04-25T13:00:44;14.40;58.40
77613;DHT22;66777;52.282;5.960;2023-04-25T13:03:10;15.80;56.60
77613;DHT22;66777;52.282;5.960;2023-04-25T13:05:39;17.20;54.00
77613;DHT22;66777;52.282;5.960;2023-04-25T13:08:05;18.90;51.40
77613;DHT22;66777;52.282;5.960;2023-04-25T13:10:31;17.40;52.10
77613;DHT22;66777;52.282;5.960;2023-04-25T13:12:59;15.60;53.60
77613;DHT22;66777;52.282;5.960;2023-04-25T13:15:27;14.90;55.20
77613;DHT22;66777;52.282;5.960;2023-04-25T13:17:53;15.00;53.10
77613;DHT22;66777;52.282;5.960;2023-04-25T13:20:19;14.30;55.40
77613;DHT22;66777;52.282;5.960;2023-04-25T13:22:47;13.60;55.70
77613;DHT22;66777;52.282;5.960;2023-04-25T13:25:13;13.50;56.70
77613;DHT22;66777;52.282;5.960;2023-04-25T13:27:39;17.00;52.50
77613;DHT22;66777;52.282;5.960;2023-04-25T13:30:06;21.70;46.90
77613;DHT22;66777;52.282;5.960;2023-04-25T13:32:35;26.50;42.20
77613;DHT22;66777;52.282;5.960;2023-04-25T13:35:04;28.60;39.80
77613;DHT22;66777;52.282;5.960;2023-04-25T13:37:30;26.80;41.20
77613;DHT22;66777;52.282;5.960;2023-04-25T13:39:59;25.00;41.80
77613;DHT22;66777;52.282;5.960;2023-04-25T13:42:26;26.80;39.80
77613;DHT22;66777;52.282;5.960;2023-04-25T13:44:52;27.90;39.40
77613;DHT22;66777;52.282;5.960;2023-04-25T13:47:18;25.50;42.00
77613;DHT22;66777;52.282;5.960;2023-04-25T13:49:45;29.20;39.20
77613;DHT22;66777;52.282;5.960;2023-04-25T13:52:11;26.80;40.50
77613;DHT22;66777;52.282;5.960;2023-04-25T13:54:36;28.50;39.70
77613;DHT22;66777;52.282;5.960;2023-04-25T13:57:02;31.90;37.90
77613;DHT22;66777;52.282;5.960;2023-04-25T13:59:28;34.40;34.40
77613;DHT22;66777;52.282;5.960;2023-04-25T14:01:54;29.20;39.10
77613;DHT22;66777;52.282;5.960;2023-04-25T14:04:20;27.20;41.10
77613;DHT22;66777;52.282;5.960;2023-04-25T14:06:46;24.00;44.10
77613;DHT22;66777;52.282;5.960;2023-04-25T14:09:11;21.10;47.20
77613;DHT22;66777;52.282;5.960;2023-04-25T14:11:38;18.20;49.70
77613;DHT22;66777;52.282;5.960;2023-04-25T14:14:03;16.30;51.60
77613;DHT22;66777;52.282;5.960;2023-04-25T14:16:30;16.20;51.90
77613;DHT22;66777;52.282;5.960;2023-04-25T14:19:00;15.60;51.30
77613;DHT22;66777;52.282;5.960;2023-04-25T14:21:27;15.00;52.80
77613;DHT22;66777;52.282;5.960;2023-04-25T14:23:54;14.80;53.20
77613;DHT22;66777;52.282;5.960;2023-04-25T14:26:20;14.70;53.00
77613;DHT22;66777;52.282;5.960;2023-04-25T14:28:46;14.60;54.20
77613;DHT22;66777;52.282;5.960;2023-04-25T14:31:12;14.40;53.20
77613;DHT22;66777;52.282;5.960;2023-04-25T14:33:38;15.50;52.90
77613;DHT22;66777;52.282;5.960;2023-04-25T14:36:08;17.80;48.70
77613;DHT22;66777;52.282;5.960;2023-04-25T14:38:34;19.70;46.90
77613;DHT22;66777;52.282;5.960;2023-04-25T14:40:59;20.50;42.50
77613;DHT22;66777;52.282;5.960;2023-04-25T14:43:25;20.90;44.50
77613;DHT22;66777;52.282;5.960;2023-04-25T14:45:51;19.20;46.10
77613;DHT22;66777;52.282;5.960;2023-04-25T14:48:18;20.50;45.90
77613;DHT22;66777;52.282;5.960;2023-04-25T14:50:46;24.60;40.60
77613;DHT22;66777;52.282;5.960;2023-04-25T14:53:12;24.40;40.10
77613;DHT22;66777;52.282;5.960;2023-04-25T14:55:40;21.90;41.50
77613;DHT22;66777;52.282;5.960;2023-04-25T14:58:06;21.90;42.60
77613;DHT22;66777;52.282;5.960;2023-04-25T15:00:32;21.30;42.70
77613;DHT22;66777;52.282;5.960;2023-04-25T15:02:58;25.00;40.00
77613;DHT22;66777;52.282;5.960;2023-04-25T15:05:24;29.30;36.00
77613;DHT22;66777;52.282;5.960;2023-04-25T15:07:50;29.90;35.40
77613;DHT22;66777;52.282;5.960;2023-04-25T15:10:17;24.50;39.70
77613;DHT22;66777;52.282;5.960;2023-04-25T15:12:45;20.30;42.40
77613;DHT22;66777;52.282;5.960;2023-04-25T15:15:11;18.30;46.50
77613;DHT22;66777;52.282;5.960;2023-04-25T15:17:43;17.00;47.90
77613;DHT22;66777;52.282;5.960;2023-04-25T15:20:12;15.50;47.80
77613;DHT22;66777;52.282;5.960;2023-04-25T15:22:41;14.20;49.70
77613;DHT22;66777;52.282;5.960;2023-04-25T15:25:07;18.30;46.90
77613;DHT22;66777;52.282;5.960;2023-04-25T15:27:35;23.90;40.10
77613;DHT22;66777;52.282;5.960;2023-04-25T15:30:07;27.20;34.40
77613;DHT22;66777;52.282;5.960;2023-04-25T15:32:34;29.10;31.90
77613;DHT22;66777;52.282;5.960;2023-04-25T15:35:03;28.10;35.00
77613;DHT22;66777;52.282;5.960;2023-04-25T15:37:30;26.50;35.30
77613;DHT22;66777;52.282;5.960;2023-04-25T15:40:10;30.60;33.50
77613;DHT22;66777;52.282;5.960;2023-04-25T15:42:42;30.80;30.70
77613;DHT22;66777;52.282;5.960;2023-04-25T15:45:09;29.10;33.70